Time;durP1;ratioP1;P1;durP2;ratioP2;P2;SDS_P1;SDS_P2;PMS_P1;PMS_P2;Temp;Humidity;BMP_temperature;BMP_pressure;BME280_temperature;BME280_humidity;BME280_pressure;Samples;Min_cycle;Max_cycle;Signal;HPM_P1;HPM_P2
2023/04/29 00:00:57;;;;;;;28.88;17.08;;;;;;;12.68;100.00;97892.44;2568091;28;20900;-90
2023/04/29 00:02:12;;;;;;;24.05;16.33;;;;;;;12.71;100.00;97894.94;2567424;28;20059;-91
2023/04/29 00:03:31;;;;;;;25.50;15.48;;;;;;;12.29;100.00;97891.53;2568290;28;20063;-89
2023/04/29 00:04:46;;;;;;;25.50;16.00;;;;;;;12.53;100.00;97886.97;2567185;28;20117;-90
2023/04/29 00:06:02;;;;;;;23.15;14.85;;;;;;;12.62;100.00;97880.44;2567784;28;20505;-91
2023/04/29 00:07:18;;;;;;;26.25;15.48;;;;;;;12.33;100.00;97877.34;2567343;28;20061;-90
2023/04/29 00:08:33;;;;;;;21.95;14.35;;;;;;;12.43;100.00;97889.16;2567880;28;20082;-90
2023/04/29 00:09:49;;;;;;;21.60;14.20;;;;;;;12.48;100.00;97882.84;2568192;28;20058;-90
2023/04/29 00:11:05;;;;;;;23.95;15.02;;;;;;;12.51;100.00;97880.09;2570199;28;20093;-90
2023/04/29 00:12:20;;;;;;;23.48;14.98;;;;;;;12.48;100.00;97885.47;2558185;29;20051;-91
2023/04/29 00:13:39;;;;;;;25.63;15.40;;;;;;;12.44;100.00;97887.41;2563739;28;20502;-93
2023/04/29 00:14:55;;;;;;;21.13;13.65;;;;;;;12.53;100.00;97884.34;2569093;28;20165;-91
2023/04/29 00:16:10;;;;;;;20.38;13.52;;;;;;;12.59;100.00;97885.00;2569845;28;20403;-88
2023/04/29 00:17:26;;;;;;;23.30;15.10;;;;;;;12.66;100.00;97894.28;2569014;28;20053;-89
2023/04/29 00:18:41;;;;;;;21.23;14.50;;;;;;;12.67;100.00;97888.13;2569963;28;20510;-89
2023/04/29 00:19:57;;;;;;;22.38;15.13;;;;;;;12.57;100.00;97896.44;2569533;28;20422;-89
2023/04/29 00:21:13;;;;;;;24.13;14.25;;;;;;;12.61;100.00;97893.66;2570361;28;20414;-91
2023/04/29 00:22:28;;;;;;;22.20;13.95;;;;;;;12.56;100.00;97892.06;2569249;28;20055;-90
2023/04/29 00:23:44;;;;;;;24.05;14.35;;;;;;;12.64;100.00;97890.88;2570078;28;20410;-90
2023/04/29 00:25:00;;;;;;;21.70;14.05;;;;;;;12.68;100.00;97888.06;2569011;28;20414;-91
2023/04/29 00:26:16;;;;;;;19.33;13.25;;;;;;;12.61;100.00;97891.03;2569758;28;20054;-89
2023/04/29 00:27:32;;;;;;;25.30;14.73;;;;;;;12.65;100.00;97890.84;2569193;28;20054;-91
2023/04/29 00:28:47;;;;;;;20.98;13.27;;;;;;;12.77;100.00;97886.78;2569121;28;20563;-91
2023/04/29 00:30:03;;;;;;;21.63;13.73;;;;;;;12.59;100.00;97890.25;2569806;28;20077;-91
2023/04/29 00:31:19;;;;;;;19.13;13.57;;;;;;;12.47;100.00;97895.13;2569133;28;20083;-89
2023/04/29 00:32:35;;;;;;;19.85;12.70;;;;;;;12.62;100.00;97895.38;2569822;28;20395;-90
2023/04/29 00:33:51;;;;;;;21.35;14.18;;;;;;;12.68;100.00;97889.81;2568999;28;20059;-91
2023/04/29 00:35:06;;;;;;;20.58;14.00;;;;;;;12.71;100.00;97897.56;2569647;28;20066;-91
2023/04/29 00:36:22;;;;;;;24.63;14.70;;;;;;;12.67;100.00;97894.25;2568899;28;20436;-90
2023/04/29 00:37:37;;;;;;;20.23;13.95;;;;;;;12.51;100.00;97891.44;2569916;28;20059;-91
2023/04/29 00:38:53;;;;;;;19.90;13.80;;;;;;;12.47;100.00;97892.50;2558351;29;20070;-90
2023/04/29 00:40:09;;;;;;;18.85;13.52;;;;;;;12.26;100.00;97896.94;2563544;28;20561;-90
2023/04/29 00:41:25;;;;;;;20.70;14.13;;;;;;;12.44;100.00;97895.28;2568942;28;20047;-90
2023/04/29 00:42:41;;;;;;;18.02;11.52;;;;;;;12.35;100.00;97895.66;2569840;28;20130;-89
2023/04/29 00:43:56;;;;;;;17.58;10.98;;;;;;;12.28;100.00;97890.69;2568948;28;20493;-91
2023/04/29 00:45:11;;;;;;;24.85;14.93;;;;;;;12.38;100.00;97895.53;2569870;28;20063;-91
2023/04/29 00:46:27;;;;;;;25.98;14.50;;;;;;;12.25;100.00;97896.06;2568768;28;20482;-90
2023/04/29 00:47:43;;;;;;;24.20;15.18;;;;;;;12.19;100.00;97893.72;2569745;28;20081;-92
2023/04/29 00:48:59;;;;;;;25.60;15.05;;;;;;;12.14;100.00;97895.66;2569257;28;20074;-90
2023/04/29 00:50:15;;;;;;;21.88;14.68;;;;;;;12.37;100.00;97893.81;2569657;28;20086;-90
2023/04/29 00:51:32;;;;;;;21.33;13.45;;;;;;;12.25;100.00;97906.56;2568934;28;20489;-91
2023/04/29 00:52:48;;;;;;;24.77;14.35;;;;;;;12.29;100.00;97897.66;2570033;28;20498;-90
2023/04/29 00:54:04;;;;;;;23.65;13.80;;;;;;;12.32;100.00;97895.81;2569293;28;20086;-90
2023/04/29 00:55:19;;;;;;;22.90;14.10;;;;;;;12.31;100.00;97894.13;2569993;28;20061;-90
2023/04/29 00:56:38;;;;;;;21.25;13.48;;;;;;;12.49;100.00;97897.66;2569114;28;20141;-91
2023/04/29 00:57:54;;;;;;;18.73;13.30;;;;;;;12.34;100.00;97886.94;2569992;28;20165;-92
2023/04/29 00:59:11;;;;;;;22.27;13.48;;;;;;;12.26;100.00;97889.06;2568981;28;20085;-89
2023/04/29 01:00:27;;;;;;;26.38;13.35;;;;;;;12.29;100.00;97881.03;2570203;28;20098;-89
2023/04/29 01:01:43;;;;;;;20.65;13.60;;;;;;;12.04;100.00;97891.75;2569080;28;20205;-90
2023/04/29 01:03:12;;;;;;;25.38;14.50;;;;;;;12.17;100.00;97885.06;2577087;28;20070;-87
2023/04/29 01:04:55;;;;;;;20.17;12.80;;;;;;;12.14;100.00;97879.94;2566983;29;20051;-87
2023/04/29 01:06:48;;;;;;;19.17;13.00;;;;;;;12.37;100.00;97872.81;2567421;29;20039;-89
2023/04/29 01:08:36;;;;;;;24.73;13.82;;;;;;;12.38;100.00;97874.53;2569807;28;20087;-89
2023/04/29 01:10:07;;;;;;;21.92;12.80;;;;;;;12.35;100.00;97874.66;2569417;28;20594;-91
2023/04/29 01:11:29;;;;;;;24.63;13.43;;;;;;;12.27;100.00;97875.00;2569418;28;20513;-90
2023/04/29 01:12:46;;;;;;;19.65;13.18;;;;;;;12.33;100.00;97872.09;2569076;28;20121;-91
2023/04/29 01:14:03;;;;;;;20.92;13.55;;;;;;;12.41;100.00;97875.25;2569588;28;20051;-88
2023/04/29 01:15:28;;;;;;;22.50;13.45;;;;;;;12.49;100.00;97876.66;2568839;28;20642;-91
2023/04/29 01:16:50;;;;;;;20.73;13.27;;;;;;;12.54;100.00;97872.06;2569594;28;20590;-89
2023/04/29 01:18:19;;;;;;;21.73;13.57;;;;;;;12.52;100.00;97872.13;2568663;28;20058;-91
2023/04/29 01:19:49;;;;;;;23.05;12.82;;;;;;;12.50;100.00;97875.75;2570499;28;20117;-91
2023/04/29 01:21:05;;;;;;;21.42;12.93;;;;;;;12.28;100.00;97874.94;2567989;28;20055;-91
2023/04/29 01:22:21;;;;;;;20.80;13.18;;;;;;;12.37;100.00;97881.56;2569939;28;20506;-91
2023/04/29 01:23:36;;;;;;;19.92;12.60;;;;;;;12.26;100.00;97882.03;2558489;29;20106;-91
2023/04/29 01:24:52;;;;;;;21.08;12.75;;;;;;;12.24;100.00;97880.41;2563023;28;20529;-90
2023/04/29 01:26:08;;;;;;;20.02;12.88;;;;;;;12.08;100.00;97881.06;2568602;28;20066;-91
2023/04/29 01:27:26;;;;;;;20.88;12.88;;;;;;;11.95;100.00;97878.06;2569808;28;20054;-91
2023/04/29 01:28:59;;;;;;;21.00;12.63;;;;;;;11.73;100.00;97880.75;2568368;28;20054;-87
2023/04/29 01:30:41;;;;;;;23.80;13.20;;;;;;;11.66;100.00;97868.81;2569332;28;20070;-90
2023/04/29 01:32:09;;;;;;;23.20;13.45;;;;;;;11.82;100.00;97869.03;2569011;28;20141;-92
2023/04/29 01:33:33;;;;;;;23.85;14.18;;;;;;;12.00;100.00;97870.84;2568349;28;20112;-90
2023/04/29 01:35:09;;;;;;;24.60;13.73;;;;;;;12.21;100.00;97872.63;2569328;28;20105;-91
2023/04/29 01:36:52;;;;;;;27.52;14.80;;;;;;;12.30;100.00;97872.25;2568383;28;20046;-91
2023/04/29 01:38:29;;;;;;;25.48;14.23;;;;;;;12.46;100.00;97867.19;2569356;28;20059;-91
2023/04/29 01:39:53;;;;;;;27.48;13.88;;;;;;;12.40;100.00;97868.31;2568582;28;20066;-90
2023/04/29 01:41:17;;;;;;;26.88;14.50;;;;;;;12.35;100.00;97865.00;2568442;28;20695;-91
2023/04/29 01:42:44;;;;;;;25.13;14.45;;;;;;;12.26;100.00;97868.06;2568972;28;20054;-90
2023/04/29 01:44:03;;;;;;;23.50;14.32;;;;;;;12.42;100.00;97861.19;2568620;28;20059;-90
2023/04/29 01:45:20;;;;;;;26.40;14.02;;;;;;;12.51;100.00;97865.19;2569565;28;20061;-90
2023/04/29 01:46:37;;;;;;;25.23;13.98;;;;;;;12.36;100.00;97860.63;2568187;28;20114;-90
2023/04/29 01:47:55;;;;;;;22.15;14.02;;;;;;;12.24;100.00;97865.50;2568848;28;20062;-90
2023/04/29 01:49:11;;;;;;;29.15;15.50;;;;;;;12.25;100.00;97859.31;2568434;28;20058;-90
2023/04/29 01:50:27;;;;;;;30.45;16.55;;;;;;;12.18;100.00;97857.91;2568783;28;20851;-90
2023/04/29 01:51:42;;;;;;;30.60;16.27;;;;;;;12.36;100.00;97856.25;2568069;28;20067;-91
2023/04/29 01:52:58;;;;;;;32.03;17.25;;;;;;;12.49;100.00;97850.41;2568797;28;20750;-90
2023/04/29 01:54:13;;;;;;;26.40;15.88;;;;;;;12.70;100.00;97853.81;2568539;28;20047;-91
2023/04/29 01:55:29;;;;;;;29.83;16.92;;;;;;;12.74;100.00;97844.91;2568262;28;20066;-90
2023/04/29 01:56:45;;;;;;;27.58;15.65;;;;;;;12.65;100.00;97847.94;2569185;28;20105;-91
2023/04/29 01:58:00;;;;;;;31.15;15.25;;;;;;;12.55;100.00;97845.72;2568208;28;20062;-90
2023/04/29 01:59:16;;;;;;;29.55;16.20;;;;;;;12.37;100.00;97846.56;2569017;28;20057;-93
2023/04/29 02:00:32;;;;;;;26.80;15.75;;;;;;;12.27;100.00;97852.22;2567814;28;20054;-91
2023/04/29 02:01:47;;;;;;;26.63;15.65;;;;;;;12.33;100.00;97845.03;2569192;28;20482;-92
2023/04/29 02:03:04;;;;;;;27.42;15.95;;;;;;;12.28;100.00;97848.69;2568091;28;20054;-89
2023/04/29 02:04:19;;;;;;;30.10;15.80;;;;;;;12.18;100.00;97854.41;2568725;28;20559;-90
2023/04/29 02:05:35;;;;;;;26.63;15.70;;;;;;;12.17;100.00;97856.19;2568332;28;20054;-90
2023/04/29 02:06:53;;;;;;;28.65;16.35;;;;;;;12.18;100.00;97850.03;2568718;28;20458;-90
2023/04/29 02:08:09;;;;;;;26.63;15.48;;;;;;;12.17;100.00;97850.94;2567890;28;20113;-90
2023/04/29 02:09:24;;;;;;;26.85;14.48;;;;;;;12.31;100.00;97849.50;2569000;28;20047;-90
2023/04/29 02:10:40;;;;;;;27.15;14.95;;;;;;;12.31;100.00;97846.88;2568375;28;20083;-89
2023/04/29 02:11:55;;;;;;;24.60;14.63;;;;;;;12.39;100.00;97845.59;2569438;28;20518;-90
2023/04/29 02:13:12;;;;;;;28.73;15.43;;;;;;;12.46;100.00;97848.78;2568603;28;20057;-90
2023/04/29 02:14:27;;;;;;;26.02;14.93;;;;;;;12.49;100.00;97850.41;2568969;28;20407;-91
2023/04/29 02:15:43;;;;;;;24.85;13.85;;;;;;;12.55;100.00;97842.28;2568102;28;20187;-90
2023/04/29 02:16:59;;;;;;;27.40;14.05;;;;;;;12.55;100.00;97843.09;2568750;28;20051;-90
2023/04/29 02:18:14;;;;;;;24.63;15.50;;;;;;;12.46;100.00;97846.16;2568099;28;20047;-90
2023/04/29 02:19:30;;;;;;;23.08;14.60;;;;;;;12.49;100.00;97850.41;2568877;28;20063;-91
2023/04/29 02:20:46;;;;;;;24.25;13.95;;;;;;;12.59;100.00;97858.75;2557436;29;20106;-90
2023/04/29 02:22:02;;;;;;;25.75;15.05;;;;;;;12.60;100.00;97852.56;2562343;28;20050;-91
2023/04/29 02:23:17;;;;;;;24.10;14.20;;;;;;;12.63;100.00;97858.50;2568093;28;20062;-91
2023/04/29 02:24:34;;;;;;;25.80;14.45;;;;;;;12.78;100.00;97851.72;2568633;28;20061;-91
2023/04/29 02:25:49;;;;;;;24.73;13.93;;;;;;;12.73;100.00;97848.47;2567878;28;20486;-91
2023/04/29 02:27:05;;;;;;;21.30;13.38;;;;;;;12.66;100.00;97847.88;2568236;28;20055;-90
2023/04/29 02:28:22;;;;;;;22.75;13.40;;;;;;;12.60;100.00;97844.69;2568531;28;20055;-91
2023/04/29 02:29:37;;;;;;;23.48;13.50;;;;;;;12.56;100.00;97841.34;2567958;28;20493;-90
2023/04/29 02:30:54;;;;;;;24.40;13.60;;;;;;;12.49;100.00;97834.66;2568783;28;20110;-91
2023/04/29 02:32:09;;;;;;;26.58;14.27;;;;;;;12.46;100.00;97840.91;2568026;28;20050;-91
2023/04/29 02:33:25;;;;;;;28.92;15.30;;;;;;;12.51;100.00;97840.72;2567938;28;20058;-89
2023/04/29 02:34:40;;;;;;;24.88;14.23;;;;;;;12.38;100.00;97838.66;2567681;28;20418;-90
2023/04/29 02:35:56;;;;;;;23.88;13.88;;;;;;;12.39;100.00;97847.34;2558190;29;20051;-90
2023/04/29 02:37:11;;;;;;;27.00;14.90;;;;;;;12.35;100.00;97851.88;2561542;28;20069;-90
2023/04/29 02:38:27;;;;;;;26.85;14.95;;;;;;;12.33;100.00;97843.22;2568928;28;20195;-91
2023/04/29 02:39:43;;;;;;;24.33;14.50;;;;;;;12.35;100.00;97844.00;2568262;28;20113;-92
2023/04/29 02:40:58;;;;;;;23.50;13.98;;;;;;;12.35;100.00;97851.06;2568786;28;20054;-90
2023/04/29 02:42:14;;;;;;;24.48;13.45;;;;;;;12.15;100.00;97853.63;2568119;28;20062;-91
2023/04/29 02:43:30;;;;;;;23.42;14.40;;;;;;;12.13;100.00;97844.13;2568826;28;20062;-91
2023/04/29 02:44:45;;;;;;;24.58;14.27;;;;;;;12.23;100.00;97849.84;2568184;28;20092;-88
2023/04/29 02:46:01;;;;;;;25.30;14.60;;;;;;;12.15;100.00;97848.38;2568662;28;20065;-89
2023/04/29 02:47:16;;;;;;;25.50;14.43;;;;;;;12.26;100.00;97849.69;2567810;28;20051;-90
2023/04/29 02:48:32;;;;;;;25.67;15.00;;;;;;;12.32;100.00;97853.81;2568744;28;20406;-90
2023/04/29 02:49:48;;;;;;;21.17;13.02;;;;;;;12.33;100.00;97855.53;2566867;28;20063;-90
2023/04/29 02:51:03;;;;;;;23.92;13.93;;;;;;;12.33;100.00;97851.09;2568598;28;20065;-89
2023/04/29 02:52:19;;;;;;;22.73;14.02;;;;;;;12.18;100.00;97852.66;2568336;28;20061;-91
2023/04/29 02:53:35;;;;;;;24.77;14.63;;;;;;;12.22;100.00;97848.97;2568976;28;20121;-89
2023/04/29 02:54:50;;;;;;;23.40;13.70;;;;;;;12.24;100.00;97852.38;2567952;28;20466;-90
2023/04/29 02:56:06;;;;;;;24.80;13.00;;;;;;;12.24;100.00;97847.13;2568315;28;20059;-91
2023/04/29 02:57:22;;;;;;;21.30;13.65;;;;;;;12.26;100.00;97849.69;2568114;28;20085;-90
2023/04/29 02:58:37;;;;;;;21.75;13.52;;;;;;;12.32;100.00;97848.56;2567874;28;20418;-90
2023/04/29 02:59:53;;;;;;;22.45;14.23;;;;;;;12.16;100.00;97849.25;2568292;28;20066;-90
2023/04/29 03:01:08;;;;;;;25.48;14.50;;;;;;;11.95;100.00;97846.59;2568013;28;20113;-90
2023/04/29 03:02:25;;;;;;;22.83;14.07;;;;;;;11.73;100.00;97849.28;2568647;28;20047;-90
2023/04/29 03:03:40;;;;;;;25.70;14.60;;;;;;;11.69;100.00;97852.97;2567803;28;20410;-91
2023/04/29 03:04:56;;;;;;;27.15;14.85;;;;;;;11.71;100.00;97854.59;2568916;28;20055;-90
2023/04/29 03:06:11;;;;;;;27.85;14.52;;;;;;;11.65;100.00;97846.13;2567789;28;20073;-91
2023/04/29 03:07:28;;;;;;;29.85;15.10;;;;;;;11.32;100.00;97844.00;2568494;28;20062;-90
2023/04/29 03:08:44;;;;;;;27.25;15.73;;;;;;;11.29;100.00;97839.72;2567610;28;20082;-90
2023/04/29 03:10:00;;;;;;;29.02;16.77;;;;;;;11.64;100.00;97849.66;2569082;28;20055;-91
2023/04/29 03:11:15;;;;;;;31.10;16.08;;;;;;;11.67;100.00;97842.53;2567902;28;20059;-90
2023/04/29 03:12:32;;;;;;;28.30;16.05;;;;;;;11.56;100.00;97844.75;2568971;28;20054;-91
2023/04/29 03:13:48;;;;;;;27.27;15.27;;;;;;;11.62;100.00;97839.25;2567912;28;20517;-90
2023/04/29 03:15:05;;;;;;;29.52;15.88;;;;;;;11.72;100.00;97844.97;2568945;28;20054;-90
2023/04/29 03:16:22;;;;;;;29.85;15.25;;;;;;;11.90;100.00;97845.09;2567560;28;20093;-90
2023/04/29 03:17:37;;;;;;;29.58;15.38;;;;;;;12.01;100.00;97842.84;2568989;28;20550;-92
2023/04/29 03:18:53;;;;;;;27.42;14.98;;;;;;;12.04;100.00;97845.38;2568107;28;20051;-90
2023/04/29 03:20:09;;;;;;;29.90;14.85;;;;;;;11.88;100.00;97845.16;2569073;28;20063;-91
2023/04/29 03:21:26;;;;;;;30.02;15.23;;;;;;;11.89;100.00;97841.63;2567538;28;21049;-90
2023/04/29 03:22:41;;;;;;;29.63;15.10;;;;;;;11.88;100.00;97839.94;2568544;28;20339;-91
2023/04/29 03:23:57;;;;;;;23.55;13.73;;;;;;;11.67;100.00;97842.53;2567922;28;20129;-90
2023/04/29 03:25:13;;;;;;;23.52;13.98;;;;;;;11.71;100.00;97841.47;2568769;28;20047;-89
2023/04/29 03:26:28;;;;;;;26.38;14.68;;;;;;;11.88;100.00;97834.69;2567716;28;20058;-91
2023/04/29 03:27:44;;;;;;;29.80;14.40;;;;;;;11.98;100.00;97830.72;2568567;28;20568;-89
2023/04/29 03:28:59;;;;;;;23.90;13.43;;;;;;;11.82;100.00;97829.69;2567657;28;20066;-90
2023/04/29 03:30:15;;;;;;;24.27;14.45;;;;;;;11.68;100.00;97836.38;2568296;28;20055;-90
2023/04/29 03:31:32;;;;;;;23.75;14.07;;;;;;;11.76;100.00;97835.19;2567825;28;20065;-90
2023/04/29 03:32:47;;;;;;;29.73;14.88;;;;;;;11.68;100.00;97838.16;2567513;28;20061;-90
2023/04/29 03:34:03;;;;;;;28.50;14.63;;;;;;;11.61;100.00;97834.94;2570158;28;20062;-90
2023/04/29 03:35:18;;;;;;;28.48;14.98;;;;;;;11.59;100.00;97837.59;2569758;28;20055;-89
2023/04/29 03:36:34;;;;;;;27.42;14.95;;;;;;;11.34;100.00;97832.53;2570133;28;20055;-90
2023/04/29 03:37:49;;;;;;;31.73;16.58;;;;;;;11.45;100.00;97829.47;2569362;28;20066;-90
2023/04/29 03:39:05;;;;;;;28.05;15.63;;;;;;;11.76;100.00;97832.59;2570167;28;20055;-88
2023/04/29 03:40:21;;;;;;;33.90;17.15;;;;;;;11.84;100.00;97841.81;2569549;28;20077;-89
2023/04/29 03:41:36;;;;;;;30.65;15.90;;;;;;;11.95;100.00;97838.72;2569925;28;20057;-89
2023/04/29 03:42:52;;;;;;;32.22;16.23;;;;;;;11.98;100.00;97835.97;2569150;28;20055;-90
2023/04/29 03:44:08;;;;;;;31.15;16.80;;;;;;;12.17;100.00;97832.59;2569876;28;20314;-89
2023/04/29 03:45:23;;;;;;;26.42;14.52;;;;;;;12.11;100.00;97831.09;2572499;28;20055;-89
2023/04/29 03:46:39;;;;;;;29.33;15.05;;;;;;;12.02;100.00;97828.00;2573104;28;20055;-88
2023/04/29 03:47:54;;;;;;;28.33;16.02;;;;;;;11.68;100.00;97832.91;2572651;28;20051;-89
2023/04/29 03:49:10;;;;;;;30.13;14.93;;;;;;;11.63;100.00;97834.84;2573135;28;20055;-90
2023/04/29 03:50:25;;;;;;;30.25;16.42;;;;;;;11.60;100.00;97835.84;2572263;28;20477;-90
2023/04/29 03:51:41;;;;;;;30.30;16.35;;;;;;;11.80;100.00;97834.16;2573549;28;20429;-89
2023/04/29 03:52:57;;;;;;;25.40;15.65;;;;;;;12.03;100.00;97830.56;2573108;28;20421;-89
2023/04/29 03:54:12;;;;;;;25.33;15.05;;;;;;;12.20;100.00;97829.81;2572882;28;20063;-89
2023/04/29 03:55:28;;;;;;;27.02;14.73;;;;;;;12.21;100.00;97828.91;2572495;28;20046;-89
2023/04/29 03:56:44;;;;;;;26.98;15.38;;;;;;;12.28;100.00;97826.84;2572870;28;20418;-89
2023/04/29 03:57:59;;;;;;;25.98;13.98;;;;;;;11.78;100.00;97820.25;2571332;28;20146;-89
2023/04/29 03:59:15;;;;;;;27.30;14.55;;;;;;;11.90;100.00;97824.97;2572017;28;20062;-90
2023/04/29 04:00:31;;;;;;;26.48;13.75;;;;;;;11.47;100.00;97821.56;2571752;28;20058;-89
2023/04/29 04:01:46;;;;;;;26.98;14.90;;;;;;;11.77;100.00;97836.91;2571483;28;20105;-89
2023/04/29 04:03:02;;;;;;;31.63;15.38;;;;;;;11.89;100.00;97831.13;2571782;28;20055;-89
2023/04/29 04:04:17;;;;;;;29.38;16.25;;;;;;;12.08;100.00;97835.59;2571889;28;20051;-90
2023/04/29 04:05:33;;;;;;;28.15;15.18;;;;;;;12.13;100.00;97837.09;2572574;28;20110;-89
2023/04/29 04:06:50;;;;;;;28.15;15.00;;;;;;;12.37;100.00;97841.31;2570935;28;20078;-90
2023/04/29 04:08:06;;;;;;;20.90;12.85;;;;;;;11.83;100.00;97848.00;2572208;28;20062;-89
2023/04/29 04:09:22;;;;;;;23.58;13.85;;;;;;;11.82;100.00;97846.28;2571358;28;20055;-90
2023/04/29 04:10:37;;;;;;;26.38;15.68;;;;;;;12.01;100.00;97840.22;2572253;28;20494;-90
2023/04/29 04:11:52;;;;;;;23.92;15.80;;;;;;;12.17;100.00;97837.84;2571468;28;20058;-90
2023/04/29 04:13:08;;;;;;;23.38;14.73;;;;;;;11.99;100.00;97832.41;2571673;28;20050;-88
2023/04/29 04:14:24;;;;;;;27.00;16.02;;;;;;;11.77;100.00;97834.28;2571045;28;20054;-90
2023/04/29 04:15:40;;;;;;;24.35;15.45;;;;;;;11.66;100.00;97837.34;2571643;28;20050;-90
2023/04/29 04:16:55;;;;;;;29.63;15.38;;;;;;;11.81;100.00;97844.59;2571114;28;20496;-90
2023/04/29 04:18:11;;;;;;;27.25;15.23;;;;;;;11.72;100.00;97851.03;2571766;28;20073;-91
2023/04/29 04:19:28;;;;;;;27.20;15.18;;;;;;;11.65;100.00;97854.00;2570964;28;20043;-90
2023/04/29 04:20:43;;;;;;;26.10;15.70;;;;;;;11.62;100.00;97854.13;2571694;28;20066;-91
2023/04/29 04:21:59;;;;;;;27.33;16.33;;;;;;;11.66;100.00;97848.69;2570752;28;20482;-90
2023/04/29 04:23:15;;;;;;;24.33;15.82;;;;;;;11.83;100.00;97855.00;2571823;28;20501;-91
2023/04/29 04:24:31;;;;;;;25.27;15.57;;;;;;;12.21;100.00;97854.28;2571228;28;20572;-90
2023/04/29 04:25:47;;;;;;;25.10;15.70;;;;;;;12.27;100.00;97860.09;2571866;28;20058;-90
2023/04/29 04:27:03;;;;;;;28.27;16.67;;;;;;;12.23;100.00;97850.66;2570733;28;20112;-90
2023/04/29 04:28:19;;;;;;;26.77;15.95;;;;;;;12.18;100.00;97852.66;2571582;28;20858;-90
2023/04/29 04:29:34;;;;;;;26.92;16.45;;;;;;;12.21;100.00;97856.91;2571258;28;20100;-90
2023/04/29 04:30:50;;;;;;;25.38;15.73;;;;;;;12.19;100.00;97849.09;2571593;28;20050;-89
2023/04/29 04:32:05;;;;;;;28.63;16.52;;;;;;;12.31;100.00;97847.69;2570925;28;20059;-90
2023/04/29 04:33:21;;;;;;;24.25;14.85;;;;;;;12.40;100.00;97852.56;2571686;28;20055;-90
2023/04/29 04:34:38;;;;;;;25.42;15.07;;;;;;;12.46;100.00;97845.31;2580268;28;20046;-88
2023/04/29 04:35:54;;;;;;;23.27;15.43;;;;;;;12.42;100.00;97849.84;2576480;28;20474;-89
2023/04/29 04:37:09;;;;;;;25.55;15.30;;;;;;;12.43;100.00;97841.91;2571690;28;20055;-90
2023/04/29 04:38:26;;;;;;;24.30;15.13;;;;;;;12.49;100.00;97847.78;2571023;28;20061;-90
2023/04/29 04:39:42;;;;;;;23.83;15.45;;;;;;;12.50;100.00;97847.72;2571899;28;20643;-90
2023/04/29 04:40:58;;;;;;;25.40;14.82;;;;;;;12.41;100.00;97843.75;2570905;28;20054;-91
2023/04/29 04:42:13;;;;;;;26.42;14.80;;;;;;;12.35;100.00;97844.00;2571925;28;20410;-90
2023/04/29 04:43:29;;;;;;;24.60;15.27;;;;;;;12.47;100.00;97842.63;2571109;28;20114;-90
2023/04/29 04:44:44;;;;;;;26.25;14.98;;;;;;;12.43;100.00;97847.16;2571778;28;20061;-90
2023/04/29 04:46:08;;;;;;;24.88;14.48;;;;;;;12.56;100.00;97836.94;2570912;28;20046;-90
2023/04/29 04:47:24;;;;;;;27.58;15.73;;;;;;;12.56;100.00;97847.44;2571773;28;20089;-91
2023/04/29 04:48:39;;;;;;;27.60;15.52;;;;;;;12.66;100.00;97850.50;2570950;28;20424;-91
2023/04/29 04:49:55;;;;;;;26.52;16.25;;;;;;;12.70;100.00;97845.94;2571081;28;20055;-89
2023/04/29 04:51:12;;;;;;;26.77;15.38;;;;;;;12.67;100.00;97846.97;2580283;28;20062;-90
2023/04/29 04:52:27;;;;;;;26.35;15.48;;;;;;;12.56;100.00;97850.06;2577025;28;20125;-90
2023/04/29 04:53:43;;;;;;;29.08;16.02;;;;;;;12.46;100.00;97846.16;2570637;28;20055;-89
2023/04/29 04:54:59;;;;;;;28.73;15.77;;;;;;;12.45;100.00;97847.09;2571698;28;20070;-89
2023/04/29 04:56:14;;;;;;;29.75;16.15;;;;;;;12.25;100.00;97848.81;2568816;28;20469;-90
2023/04/29 04:57:30;;;;;;;31.58;15.98;;;;;;;12.32;100.00;97852.03;2570330;28;20058;-90
2023/04/29 04:58:45;;;;;;;30.85;16.73;;;;;;;12.45;100.00;97851.47;2569296;28;20089;-90
2023/04/29 05:00:02;;;;;;;30.13;16.17;;;;;;;12.59;100.00;97856.13;2570242;28;20458;-90
2023/04/29 05:01:18;;;;;;;28.30;15.13;;;;;;;12.67;100.00;97848.72;2569017;28;20054;-91
2023/04/29 05:02:34;;;;;;;32.03;16.98;;;;;;;12.70;100.00;97851.19;2569783;28;20054;-91
2023/04/29 05:03:49;;;;;;;33.38;17.58;;;;;;;12.78;100.00;97853.47;2568944;28;20801;-91
2023/04/29 05:05:05;;;;;;;35.33;17.40;;;;;;;12.82;100.00;97845.38;2569987;28;20417;-90
2023/04/29 05:06:20;;;;;;;30.92;16.70;;;;;;;12.90;100.00;97849.44;2568919;28;20517;-91
2023/04/29 05:07:36;;;;;;;30.85;16.25;;;;;;;12.79;100.00;97853.41;2569944;28;20073;-90
2023/04/29 05:08:51;;;;;;;27.42;16.45;;;;;;;12.72;100.00;97854.63;2569200;28;20050;-91
2023/04/29 05:10:08;;;;;;;27.52;15.60;;;;;;;12.79;100.00;97852.56;2569603;28;20086;-91
2023/04/29 05:11:23;;;;;;;26.63;15.48;;;;;;;12.79;100.00;97847.31;2568994;28;20093;-92
2023/04/29 05:12:39;;;;;;;25.45;15.30;;;;;;;13.02;100.00;97850.63;2569069;28;20090;-91
2023/04/29 05:13:55;;;;;;;23.63;15.30;;;;;;;13.05;100.00;97851.34;2569567;28;20058;-90
2023/04/29 05:15:10;;;;;;;25.88;15.60;;;;;;;13.06;100.00;97846.91;2569071;28;20055;-91
2023/04/29 05:16:26;;;;;;;22.33;14.68;;;;;;;13.18;100.00;97850.75;2569787;28;20062;-90
2023/04/29 05:17:41;;;;;;;23.55;14.75;;;;;;;12.91;100.00;97851.97;2569025;28;20085;-90
2023/04/29 05:18:57;;;;;;;21.85;13.50;;;;;;;12.89;100.00;97858.25;2569794;28;20054;-90
2023/04/29 05:20:12;;;;;;;22.63;13.90;;;;;;;12.82;100.00;97847.16;2569199;28;20058;-92
2023/04/29 05:21:28;;;;;;;22.83;14.15;;;;;;;12.88;100.00;97856.53;2569459;28;20050;-91
2023/04/29 05:22:44;;;;;;;23.73;14.32;;;;;;;12.68;100.00;97853.06;2568899;28;20342;-90
2023/04/29 05:23:59;;;;;;;22.75;13.88;;;;;;;12.83;100.00;97854.13;2569798;28;20060;-90
2023/04/29 05:25:15;;;;;;;24.48;13.82;;;;;;;12.93;100.00;97855.41;2558324;29;20641;-90
2023/04/29 05:26:31;;;;;;;23.98;15.05;;;;;;;13.00;100.00;97850.72;2563016;28;20101;-91
2023/04/29 05:27:46;;;;;;;26.27;14.68;;;;;;;13.04;100.00;97861.91;2568994;28;20063;-92
2023/04/29 05:29:02;;;;;;;24.42;14.88;;;;;;;13.05;100.00;97858.34;2569741;28;20106;-92
2023/04/29 05:30:18;;;;;;;23.55;14.60;;;;;;;13.14;100.00;97865.81;2568666;28;20054;-92
2023/04/29 05:31:33;;;;;;;26.38;15.75;;;;;;;13.17;100.00;97859.56;2570114;28;20072;-89
2023/04/29 05:32:49;;;;;;;23.85;14.35;;;;;;;13.14;100.00;97863.19;2568832;28;20644;-90
2023/04/29 05:34:05;;;;;;;24.88;14.88;;;;;;;13.24;100.00;97863.59;2569516;28;20051;-90
2023/04/29 05:35:21;;;;;;;23.40;14.40;;;;;;;13.37;100.00;97862.06;2568651;28;20086;-91
2023/04/29 05:36:36;;;;;;;25.30;14.88;;;;;;;13.34;100.00;97861.34;2569180;28;20093;-91
2023/04/29 05:37:52;;;;;;;24.58;15.07;;;;;;;13.31;100.00;97862.38;2568911;28;20061;-91
2023/04/29 05:39:07;;;;;;;27.23;15.27;;;;;;;13.27;100.00;97863.47;2569442;28;20175;-89
2023/04/29 05:40:23;;;;;;;26.70;15.13;;;;;;;13.17;100.00;97857.78;2568785;28;20070;-90
2023/04/29 05:41:39;;;;;;;24.55;15.15;;;;;;;13.22;100.00;97868.06;2569655;28;20047;-90
2023/04/29 05:42:54;;;;;;;23.80;14.00;;;;;;;13.25;100.00;97860.03;2568820;28;20054;-90
2023/04/29 05:44:10;;;;;;;23.63;14.02;;;;;;;13.23;100.00;97861.88;2568531;28;20059;-90
2023/04/29 05:45:25;;;;;;;23.98;14.27;;;;;;;13.05;100.00;97855.72;2569672;28;20062;-90
2023/04/29 05:46:41;;;;;;;23.77;14.40;;;;;;;12.99;100.00;97856.88;2568947;28;20422;-91
2023/04/29 05:47:57;;;;;;;25.27;14.88;;;;;;;12.95;100.00;97856.19;2568963;28;20097;-90
2023/04/29 05:49:12;;;;;;;24.15;15.10;;;;;;;13.25;100.00;97857.41;2569110;28;20065;-90
2023/04/29 05:50:28;;;;;;;26.08;14.93;;;;;;;13.10;100.00;97851.13;2569550;28;20062;-92